Historical Data

TheSutherlands

Weather at Humberside Airport

Current Weather from Humberside Airport

The information displayed on this page is from the METAR reports produced by Humberside Airport. Note that there are times when these are not generated.

Weather Report

Coded Weather Report: 2019/08/23 19:20 EGNJ 231920Z 18005KT CAVOK 22/16 Q1021

Report issued: 2019/08/23 at 19:20 UTC

Wind: light breeze from the south (180 degrees) at 5 knots (6 mph, 9 kph, Force 2)
Weather: good visibility and no low cloud (ceiling and visibility OK)
Temperature: 22 C
Dewpoint: 16 C
Humidity: 69%
Pressure: 1021 hPa